sensor_id;sensor_type;location;lat;lon;timestamp;P1;durP1;ratioP1;P2;durP2;ratioP2
78324;SDS011;67584;51.400;6.692;2024-01-25T00:00:56;16.67;;;5.10;;
78324;SDS011;67584;51.400;6.692;2024-01-25T00:03:21;14.95;;;5.00;;
78324;SDS011;67584;51.400;6.692;2024-01-25T00:05:47;17.77;;;5.28;;
78324;SDS011;67584;51.400;6.692;2024-01-25T00:08:13;10.98;;;4.80;;
78324;SDS011;67584;51.400;6.692;2024-01-25T00:10:39;15.23;;;4.97;;
78324;SDS011;67584;51.400;6.692;2024-01-25T00:13:05;16.30;;;5.30;;
78324;SDS011;67584;51.400;6.692;2024-01-25T00:15:30;8.43;;;3.63;;
78324;SDS011;67584;51.400;6.692;2024-01-25T00:17:56;20.23;;;6.65;;
78324;SDS011;67584;51.400;6.692;2024-01-25T00:20:22;16.73;;;3.72;;
78324;SDS011;67584;51.400;6.692;2024-01-25T00:22:48;22.83;;;4.97;;
78324;SDS011;67584;51.400;6.692;2024-01-25T00:25:13;22.50;;;5.68;;
78324;SDS011;67584;51.400;6.692;2024-01-25T00:27:39;14.43;;;3.92;;
78324;SDS011;67584;51.400;6.692;2024-01-25T00:30:05;21.20;;;5.13;;
78324;SDS011;67584;51.400;6.692;2024-01-25T00:32:31;17.92;;;5.25;;
78324;SDS011;67584;51.400;6.692;2024-01-25T00:34:57;19.23;;;4.40;;
78324;SDS011;67584;51.400;6.692;2024-01-25T00:37:22;15.05;;;5.25;;
78324;SDS011;67584;51.400;6.692;2024-01-25T00:39:48;17.80;;;5.25;;
78324;SDS011;67584;51.400;6.692;2024-01-25T00:42:14;23.40;;;5.47;;
78324;SDS011;67584;51.400;6.692;2024-01-25T00:44:41;19.40;;;5.60;;
78324;SDS011;67584;51.400;6.692;2024-01-25T00:47:08;17.10;;;4.85;;
78324;SDS011;67584;51.400;6.692;2024-01-25T00:49:34;15.73;;;4.90;;
78324;SDS011;67584;51.400;6.692;2024-01-25T00:52:00;16.58;;;4.38;;
78324;SDS011;67584;51.400;6.692;2024-01-25T00:54:28;22.10;;;5.70;;
78324;SDS011;67584;51.400;6.692;2024-01-25T00:56:54;21.77;;;5.72;;
78324;SDS011;67584;51.400;6.692;2024-01-25T00:59:20;25.17;;;6.60;;
78324;SDS011;67584;51.400;6.692;2024-01-25T01:01:46;20.25;;;5.18;;
78324;SDS011;67584;51.400;6.692;2024-01-25T01:04:15;16.02;;;4.93;;
78324;SDS011;67584;51.400;6.692;2024-01-25T01:06:41;18.67;;;5.43;;
78324;SDS011;67584;51.400;6.692;2024-01-25T01:09:07;24.13;;;5.15;;
78324;SDS011;67584;51.400;6.692;2024-01-25T01:11:33;17.75;;;4.90;;
78324;SDS011;67584;51.400;6.692;2024-01-25T01:13:59;20.00;;;5.93;;
78324;SDS011;67584;51.400;6.692;2024-01-25T01:16:25;26.85;;;6.28;;
78324;SDS011;67584;51.400;6.692;2024-01-25T01:18:51;20.25;;;5.50;;
78324;SDS011;67584;51.400;6.692;2024-01-25T01:21:16;27.48;;;6.40;;
78324;SDS011;67584;51.400;6.692;2024-01-25T01:23:42;15.73;;;4.32;;
78324;SDS011;67584;51.400;6.692;2024-01-25T01:26:07;21.23;;;5.18;;
78324;SDS011;67584;51.400;6.692;2024-01-25T01:28:33;23.45;;;5.43;;
78324;SDS011;67584;51.400;6.692;2024-01-25T01:30:59;17.65;;;5.30;;
78324;SDS011;67584;51.400;6.692;2024-01-25T01:33:24;18.40;;;4.45;;
78324;SDS011;67584;51.400;6.692;2024-01-25T01:35:50;22.08;;;5.95;;
78324;SDS011;67584;51.400;6.692;2024-01-25T01:38:16;23.08;;;5.57;;
78324;SDS011;67584;51.400;6.692;2024-01-25T01:40:41;23.98;;;5.50;;
78324;SDS011;67584;51.400;6.692;2024-01-25T01:43:17;21.48;;;4.88;;
78324;SDS011;67584;51.400;6.692;2024-01-25T01:45:43;15.00;;;4.40;;
78324;SDS011;67584;51.400;6.692;2024-01-25T01:48:09;18.58;;;5.55;;
78324;SDS011;67584;51.400;6.692;2024-01-25T01:50:35;21.50;;;5.70;;
78324;SDS011;67584;51.400;6.692;2024-01-25T01:53:00;19.33;;;4.60;;
78324;SDS011;67584;51.400;6.692;2024-01-25T01:55:26;22.60;;;5.97;;
78324;SDS011;67584;51.400;6.692;2024-01-25T01:57:52;18.35;;;5.35;;
78324;SDS011;67584;51.400;6.692;2024-01-25T02:00:18;17.38;;;4.22;;
78324;SDS011;67584;51.400;6.692;2024-01-25T02:02:46;17.38;;;5.25;;
78324;SDS011;67584;51.400;6.692;2024-01-25T02:05:12;29.10;;;5.45;;
78324;SDS011;67584;51.400;6.692;2024-01-25T02:07:38;18.15;;;5.30;;
78324;SDS011;67584;51.400;6.692;2024-01-25T02:10:05;16.60;;;4.95;;
78324;SDS011;67584;51.400;6.692;2024-01-25T02:12:32;17.10;;;5.28;;
78324;SDS011;67584;51.400;6.692;2024-01-25T02:14:58;17.25;;;4.63;;
78324;SDS011;67584;51.400;6.692;2024-01-25T02:17:23;26.38;;;6.72;;
78324;SDS011;67584;51.400;6.692;2024-01-25T02:19:49;13.43;;;4.50;;
78324;SDS011;67584;51.400;6.692;2024-01-25T02:22:16;21.10;;;6.05;;
78324;SDS011;67584;51.400;6.692;2024-01-25T02:24:44;18.48;;;5.80;;
78324;SDS011;67584;51.400;6.692;2024-01-25T02:27:09;17.08;;;4.78;;
78324;SDS011;67584;51.400;6.692;2024-01-25T02:29:35;21.13;;;5.97;;
78324;SDS011;67584;51.400;6.692;2024-01-25T02:32:01;25.48;;;3.92;;
78324;SDS011;67584;51.400;6.692;2024-01-25T02:34:26;19.77;;;4.95;;
78324;SDS011;67584;51.400;6.692;2024-01-25T02:36:52;14.23;;;5.03;;
78324;SDS011;67584;51.400;6.692;2024-01-25T02:39:17;11.98;;;4.53;;
78324;SDS011;67584;51.400;6.692;2024-01-25T02:41:43;14.38;;;4.68;;
78324;SDS011;67584;51.400;6.692;2024-01-25T02:44:09;18.08;;;4.88;;
78324;SDS011;67584;51.400;6.692;2024-01-25T02:46:36;16.55;;;4.95;;
78324;SDS011;67584;51.400;6.692;2024-01-25T02:49:01;18.48;;;5.07;;
78324;SDS011;67584;51.400;6.692;2024-01-25T02:51:27;20.75;;;4.60;;
78324;SDS011;67584;51.400;6.692;2024-01-25T02:53:53;15.27;;;4.03;;
78324;SDS011;67584;51.400;6.692;2024-01-25T02:56:18;13.32;;;5.28;;
78324;SDS011;67584;51.400;6.692;2024-01-25T02:58:44;28.60;;;5.32;;
78324;SDS011;67584;51.400;6.692;2024-01-25T03:01:10;21.77;;;4.85;;
78324;SDS011;67584;51.400;6.692;2024-01-25T03:03:35;13.43;;;4.15;;
78324;SDS011;67584;51.400;6.692;2024-01-25T03:06:02;15.18;;;5.05;;
78324;SDS011;67584;51.400;6.692;2024-01-25T03:08:27;16.05;;;5.22;;
78324;SDS011;67584;51.400;6.692;2024-01-25T03:10:53;21.38;;;4.40;;
78324;SDS011;67584;51.400;6.692;2024-01-25T03:13:20;16.55;;;4.68;;
78324;SDS011;67584;51.400;6.692;2024-01-25T03:15:45;17.90;;;4.45;;
78324;SDS011;67584;51.400;6.692;2024-01-25T03:18:11;22.20;;;5.63;;
78324;SDS011;67584;51.400;6.692;2024-01-25T03:20:36;15.30;;;4.30;;
78324;SDS011;67584;51.400;6.692;2024-01-25T03:23:03;18.40;;;4.65;;
78324;SDS011;67584;51.400;6.692;2024-01-25T03:25:29;19.50;;;4.47;;
78324;SDS011;67584;51.400;6.692;2024-01-25T03:27:56;20.63;;;5.40;;
78324;SDS011;67584;51.400;6.692;2024-01-25T03:30:22;13.70;;;3.72;;
78324;SDS011;67584;51.400;6.692;2024-01-25T03:32:47;14.65;;;4.13;;
78324;SDS011;67584;51.400;6.692;2024-01-25T03:35:13;18.65;;;5.88;;
78324;SDS011;67584;51.400;6.692;2024-01-25T03:37:39;20.52;;;5.60;;
78324;SDS011;67584;51.400;6.692;2024-01-25T03:40:04;14.05;;;5.40;;
78324;SDS011;67584;51.400;6.692;2024-01-25T03:42:31;15.13;;;3.95;;
78324;SDS011;67584;51.400;6.692;2024-01-25T03:44:56;21.50;;;5.30;;
78324;SDS011;67584;51.400;6.692;2024-01-25T03:47:22;18.83;;;4.95;;
78324;SDS011;67584;51.400;6.692;2024-01-25T03:49:48;25.63;;;4.93;;
78324;SDS011;67584;51.400;6.692;2024-01-25T03:52:14;15.18;;;4.47;;
78324;SDS011;67584;51.400;6.692;2024-01-25T03:54:39;18.55;;;4.90;;
78324;SDS011;67584;51.400;6.692;2024-01-25T03:57:05;18.52;;;6.22;;
78324;SDS011;67584;51.400;6.692;2024-01-25T03:59:31;16.08;;;4.43;;
78324;SDS011;67584;51.400;6.692;2024-01-25T04:01:56;18.48;;;5.20;;
78324;SDS011;67584;51.400;6.692;2024-01-25T04:04:22;13.15;;;4.60;;
78324;SDS011;67584;51.400;6.692;2024-01-25T04:06:48;21.58;;;5.72;;
78324;SDS011;67584;51.400;6.692;2024-01-25T04:09:14;19.42;;;4.88;;
78324;SDS011;67584;51.400;6.692;2024-01-25T04:11:42;17.75;;;4.05;;
78324;SDS011;67584;51.400;6.692;2024-01-25T04:14:08;15.45;;;4.72;;
78324;SDS011;67584;51.400;6.692;2024-01-25T04:16:34;27.88;;;5.28;;
78324;SDS011;67584;51.400;6.692;2024-01-25T04:19:00;14.48;;;3.72;;
78324;SDS011;67584;51.400;6.692;2024-01-25T04:21:26;17.00;;;5.70;;
78324;SDS011;67584;51.400;6.692;2024-01-25T04:23:53;21.63;;;5.60;;
78324;SDS011;67584;51.400;6.692;2024-01-25T04:26:18;15.77;;;4.85;;
78324;SDS011;67584;51.400;6.692;2024-01-25T04:28:44;27.75;;;6.30;;
78324;SDS011;67584;51.400;6.692;2024-01-25T04:31:10;22.02;;;5.75;;
78324;SDS011;67584;51.400;6.692;2024-01-25T04:33:35;22.00;;;5.38;;
78324;SDS011;67584;51.400;6.692;2024-01-25T04:36:04;19.85;;;5.80;;
78324;SDS011;67584;51.400;6.692;2024-01-25T04:38:29;21.25;;;5.32;;
78324;SDS011;67584;51.400;6.692;2024-01-25T04:40:55;19.17;;;4.25;;
78324;SDS011;67584;51.400;6.692;2024-01-25T04:43:21;17.08;;;4.70;;
78324;SDS011;67584;51.400;6.692;2024-01-25T04:45:46;20.45;;;5.47;;
78324;SDS011;67584;51.400;6.692;2024-01-25T04:48:12;21.67;;;6.00;;
78324;SDS011;67584;51.400;6.692;2024-01-25T04:50:38;23.23;;;5.00;;
78324;SDS011;67584;51.400;6.692;2024-01-25T04:53:04;23.50;;;5.18;;
78324;SDS011;67584;51.400;6.692;2024-01-25T04:55:30;25.67;;;5.80;;
78324;SDS011;67584;51.400;6.692;2024-01-25T04:57:56;24.70;;;6.63;;
78324;SDS011;67584;51.400;6.692;2024-01-25T05:00:22;20.35;;;4.90;;
78324;SDS011;67584;51.400;6.692;2024-01-25T05:02:48;19.77;;;5.22;;
78324;SDS011;67584;51.400;6.692;2024-01-25T05:05:14;18.38;;;5.05;;
78324;SDS011;67584;51.400;6.692;2024-01-25T05:07:40;20.83;;;6.80;;
78324;SDS011;67584;51.400;6.692;2024-01-25T05:10:06;22.60;;;5.22;;
78324;SDS011;67584;51.400;6.692;2024-01-25T05:12:33;22.80;;;4.88;;
78324;SDS011;67584;51.400;6.692;2024-01-25T05:14:59;15.60;;;5.63;;
78324;SDS011;67584;51.400;6.692;2024-01-25T05:17:24;18.38;;;5.05;;
78324;SDS011;67584;51.400;6.692;2024-01-25T05:19:50;21.63;;;5.07;;
78324;SDS011;67584;51.400;6.692;2024-01-25T05:22:16;25.65;;;6.35;;
78324;SDS011;67584;51.400;6.692;2024-01-25T05:24:42;16.95;;;5.13;;
78324;SDS011;67584;51.400;6.692;2024-01-25T05:27:07;14.93;;;4.70;;
78324;SDS011;67584;51.400;6.692;2024-01-25T05:29:33;26.10;;;6.03;;
78324;SDS011;67584;51.400;6.692;2024-01-25T05:31:59;21.42;;;4.90;;
78324;SDS011;67584;51.400;6.692;2024-01-25T05:34:24;24.95;;;5.57;;
78324;SDS011;67584;51.400;6.692;2024-01-25T05:36:50;14.30;;;5.18;;
78324;SDS011;67584;51.400;6.692;2024-01-25T05:39:16;27.40;;;5.47;;
78324;SDS011;67584;51.400;6.692;2024-01-25T05:41:42;17.63;;;4.45;;
78324;SDS011;67584;51.400;6.692;2024-01-25T05:44:10;22.35;;;5.20;;
78324;SDS011;67584;51.400;6.692;2024-01-25T05:46:37;26.65;;;5.70;;
78324;SDS011;67584;51.400;6.692;2024-01-25T05:49:03;17.42;;;5.32;;
78324;SDS011;67584;51.400;6.692;2024-01-25T05:51:28;22.05;;;5.50;;
78324;SDS011;67584;51.400;6.692;2024-01-25T05:53:54;25.40;;;6.18;;
78324;SDS011;67584;51.400;6.692;2024-01-25T05:56:20;24.77;;;6.07;;
78324;SDS011;67584;51.400;6.692;2024-01-25T05:58:46;24.33;;;6.22;;
78324;SDS011;67584;51.400;6.692;2024-01-25T06:01:12;14.00;;;4.65;;
78324;SDS011;67584;51.400;6.692;2024-01-25T06:03:37;22.65;;;5.22;;
78324;SDS011;67584;51.400;6.692;2024-01-25T06:06:03;21.13;;;5.43;;
78324;SDS011;67584;51.400;6.692;2024-01-25T06:08:29;23.85;;;6.70;;
78324;SDS011;67584;51.400;6.692;2024-01-25T06:10:55;19.02;;;4.85;;
78324;SDS011;67584;51.400;6.692;2024-01-25T06:13:20;18.20;;;5.55;;
78324;SDS011;67584;51.400;6.692;2024-01-25T06:15:46;24.40;;;5.13;;
78324;SDS011;67584;51.400;6.692;2024-01-25T06:18:12;18.55;;;5.32;;
78324;SDS011;67584;51.400;6.692;2024-01-25T06:20:37;22.33;;;5.78;;
78324;SDS011;67584;51.400;6.692;2024-01-25T06:23:03;17.52;;;5.25;;
78324;SDS011;67584;51.400;6.692;2024-01-25T06:25:29;29.48;;;5.45;;
78324;SDS011;67584;51.400;6.692;2024-01-25T06:27:56;21.67;;;5.82;;
78324;SDS011;67584;51.400;6.692;2024-01-25T06:30:22;22.75;;;5.72;;
78324;SDS011;67584;51.400;6.692;2024-01-25T06:32:48;20.55;;;5.32;;
78324;SDS011;67584;51.400;6.692;2024-01-25T06:35:14;18.83;;;5.65;;
78324;SDS011;67584;51.400;6.692;2024-01-25T06:37:40;24.65;;;7.45;;
78324;SDS011;67584;51.400;6.692;2024-01-25T06:40:06;22.77;;;5.45;;
78324;SDS011;67584;51.400;6.692;2024-01-25T06:42:32;20.58;;;6.32;;
78324;SDS011;67584;51.400;6.692;2024-01-25T06:44:58;16.73;;;6.18;;
78324;SDS011;67584;51.400;6.692;2024-01-25T06:47:24;24.35;;;6.50;;
78324;SDS011;67584;51.400;6.692;2024-01-25T06:49:50;23.27;;;5.88;;
78324;SDS011;67584;51.400;6.692;2024-01-25T06:52:17;25.92;;;6.25;;
78324;SDS011;67584;51.400;6.692;2024-01-25T06:54:43;19.98;;;4.80;;
78324;SDS011;67584;51.400;6.692;2024-01-25T06:57:09;17.48;;;5.93;;
78324;SDS011;67584;51.400;6.692;2024-01-25T06:59:35;15.82;;;5.07;;
78324;SDS011;67584;51.400;6.692;2024-01-25T07:02:01;23.80;;;6.00;;
78324;SDS011;67584;51.400;6.692;2024-01-25T07:04:28;30.80;;;5.65;;
78324;SDS011;67584;51.400;6.692;2024-01-25T07:06:54;26.98;;;6.32;;
78324;SDS011;67584;51.400;6.692;2024-01-25T07:09:20;21.35;;;5.70;;
78324;SDS011;67584;51.400;6.692;2024-01-25T07:11:46;15.07;;;5.50;;
78324;SDS011;67584;51.400;6.692;2024-01-25T07:14:11;19.52;;;6.30;;
78324;SDS011;67584;51.400;6.692;2024-01-25T07:16:37;19.13;;;5.32;;
78324;SDS011;67584;51.400;6.692;2024-01-25T07:19:03;24.60;;;7.28;;
78324;SDS011;67584;51.400;6.692;2024-01-25T07:21:29;13.75;;;5.07;;
78324;SDS011;67584;51.400;6.692;2024-01-25T07:23:59;20.55;;;7.30;;
78324;SDS011;67584;51.400;6.692;2024-01-25T07:28:51;20.63;;;6.68;;
78324;SDS011;67584;51.400;6.692;2024-01-25T07:31:23;25.67;;;6.78;;
78324;SDS011;67584;51.400;6.692;2024-01-25T07:33:52;19.85;;;6.13;;
78324;SDS011;67584;51.400;6.692;2024-01-25T07:36:18;13.60;;;5.65;;
78324;SDS011;67584;51.400;6.692;2024-01-25T07:38:44;18.27;;;6.65;;
78324;SDS011;67584;51.400;6.692;2024-01-25T07:41:12;18.52;;;6.97;;
78324;SDS011;67584;51.400;6.692;2024-01-25T07:43:38;25.80;;;7.00;;
78324;SDS011;67584;51.400;6.692;2024-01-25T07:46:04;25.17;;;6.70;;
78324;SDS011;67584;51.400;6.692;2024-01-25T07:48:29;30.50;;;6.90;;
78324;SDS011;67584;51.400;6.692;2024-01-25T07:50:56;35.83;;;7.70;;
78324;SDS011;67584;51.400;6.692;2024-01-25T07:53:21;30.15;;;6.22;;
78324;SDS011;67584;51.400;6.692;2024-01-25T07:55:47;17.60;;;5.95;;
78324;SDS011;67584;51.400;6.692;2024-01-25T07:58:16;29.33;;;6.78;;
78324;SDS011;67584;51.400;6.692;2024-01-25T08:00:42;17.50;;;4.97;;
78324;SDS011;67584;51.400;6.692;2024-01-25T08:03:08;23.30;;;6.65;;
78324;SDS011;67584;51.400;6.692;2024-01-25T08:05:34;20.45;;;6.75;;
78324;SDS011;67584;51.400;6.692;2024-01-25T08:07:59;21.92;;;5.15;;
78324;SDS011;67584;51.400;6.692;2024-01-25T08:10:25;25.38;;;7.30;;
78324;SDS011;67584;51.400;6.692;2024-01-25T08:12:51;20.05;;;7.75;;
78324;SDS011;67584;51.400;6.692;2024-01-25T08:15:17;27.25;;;6.57;;
78324;SDS011;67584;51.400;6.692;2024-01-25T08:17:42;21.45;;;6.20;;
78324;SDS011;67584;51.400;6.692;2024-01-25T08:20:09;22.63;;;6.20;;
78324;SDS011;67584;51.400;6.692;2024-01-25T08:22:38;26.30;;;7.40;;
78324;SDS011;67584;51.400;6.692;2024-01-25T08:25:03;21.92;;;7.15;;
78324;SDS011;67584;51.400;6.692;2024-01-25T08:27:30;21.55;;;6.05;;
78324;SDS011;67584;51.400;6.692;2024-01-25T08:29:55;29.27;;;7.45;;
78324;SDS011;67584;51.400;6.692;2024-01-25T08:32:21;18.88;;;6.20;;
78324;SDS011;67584;51.400;6.692;2024-01-25T08:34:47;25.10;;;6.55;;
78324;SDS011;67584;51.400;6.692;2024-01-25T08:37:13;21.52;;;7.07;;
78324;SDS011;67584;51.400;6.692;2024-01-25T08:39:38;21.25;;;6.78;;
78324;SDS011;67584;51.400;6.692;2024-01-25T08:42:04;22.25;;;6.00;;
78324;SDS011;67584;51.400;6.692;2024-01-25T08:44:31;27.48;;;6.97;;
78324;SDS011;67584;51.400;6.692;2024-01-25T08:46:57;25.27;;;6.70;;
78324;SDS011;67584;51.400;6.692;2024-01-25T08:49:23;23.65;;;7.25;;
78324;SDS011;67584;51.400;6.692;2024-01-25T08:51:48;29.73;;;7.53;;
78324;SDS011;67584;51.400;6.692;2024-01-25T08:54:15;20.88;;;6.18;;
78324;SDS011;67584;51.400;6.692;2024-01-25T08:56:41;17.05;;;5.93;;
78324;SDS011;67584;51.400;6.692;2024-01-25T08:59:06;22.55;;;8.00;;
78324;SDS011;67584;51.400;6.692;2024-01-25T09:01:32;25.55;;;6.68;;
78324;SDS011;67584;51.400;6.692;2024-01-25T09:03:58;23.67;;;6.72;;
78324;SDS011;67584;51.400;6.692;2024-01-25T09:06:28;20.25;;;7.22;;
78324;SDS011;67584;51.400;6.692;2024-01-25T09:08:55;26.50;;;7.95;;
78324;SDS011;67584;51.400;6.692;2024-01-25T09:11:21;22.27;;;6.55;;
78324;SDS011;67584;51.400;6.692;2024-01-25T09:13:47;30.20;;;8.30;;
78324;SDS011;67584;51.400;6.692;2024-01-25T09:16:13;22.80;;;6.70;;
78324;SDS011;67584;51.400;6.692;2024-01-25T09:18:39;25.55;;;7.28;;
78324;SDS011;67584;51.400;6.692;2024-01-25T09:21:04;24.00;;;7.32;;
78324;SDS011;67584;51.400;6.692;2024-01-25T09:23:30;26.25;;;9.20;;
78324;SDS011;67584;51.400;6.692;2024-01-25T09:25:56;23.70;;;8.65;;
78324;SDS011;67584;51.400;6.692;2024-01-25T09:28:21;25.58;;;8.25;;
78324;SDS011;67584;51.400;6.692;2024-01-25T09:30:47;26.20;;;7.68;;
78324;SDS011;67584;51.400;6.692;2024-01-25T09:33:14;24.85;;;8.50;;
78324;SDS011;67584;51.400;6.692;2024-01-25T09:35:40;22.17;;;9.35;;
78324;SDS011;67584;51.400;6.692;2024-01-25T09:40:32;21.98;;;8.60;;
78324;SDS011;67584;51.400;6.692;2024-01-25T09:42:58;25.77;;;9.02;;
78324;SDS011;67584;51.400;6.692;2024-01-25T09:45:24;20.85;;;7.95;;
78324;SDS011;67584;51.400;6.692;2024-01-25T09:47:50;26.35;;;10.15;;
78324;SDS011;67584;51.400;6.692;2024-01-25T09:50:16;28.98;;;9.88;;
78324;SDS011;67584;51.400;6.692;2024-01-25T09:52:43;25.15;;;10.75;;
78324;SDS011;67584;51.400;6.692;2024-01-25T09:55:14;28.92;;;11.45;;
78324;SDS011;67584;51.400;6.692;2024-01-25T09:57:45;23.95;;;9.63;;
78324;SDS011;67584;51.400;6.692;2024-01-25T10:00:12;31.15;;;11.27;;
78324;SDS011;67584;51.400;6.692;2024-01-25T10:02:38;20.55;;;10.18;;
78324;SDS011;67584;51.400;6.692;2024-01-25T10:05:05;26.38;;;11.15;;
78324;SDS011;67584;51.400;6.692;2024-01-25T10:10:06;26.60;;;10.45;;
78324;SDS011;67584;51.400;6.692;2024-01-25T10:12:32;28.45;;;11.85;;
78324;SDS011;67584;51.400;6.692;2024-01-25T10:14:58;26.08;;;12.57;;
78324;SDS011;67584;51.400;6.692;2024-01-25T10:17:24;32.55;;;11.88;;
78324;SDS011;67584;51.400;6.692;2024-01-25T10:19:51;23.15;;;10.45;;
78324;SDS011;67584;51.400;6.692;2024-01-25T10:22:16;24.52;;;11.45;;
78324;SDS011;67584;51.400;6.692;2024-01-25T10:24:43;28.33;;;11.20;;
78324;SDS011;67584;51.400;6.692;2024-01-25T10:27:08;19.35;;;8.95;;
78324;SDS011;67584;51.400;6.692;2024-01-25T10:29:34;22.00;;;10.32;;
78324;SDS011;67584;51.400;6.692;2024-01-25T10:32:00;25.50;;;11.15;;
78324;SDS011;67584;51.400;6.692;2024-01-25T10:34:28;25.17;;;10.60;;
78324;SDS011;67584;51.400;6.692;2024-01-25T10:36:54;32.33;;;12.32;;
78324;SDS011;67584;51.400;6.692;2024-01-25T10:39:21;28.23;;;11.88;;
78324;SDS011;67584;51.400;6.692;2024-01-25T10:41:47;21.10;;;9.13;;
78324;SDS011;67584;51.400;6.692;2024-01-25T10:44:19;25.95;;;10.98;;
78324;SDS011;67584;51.400;6.692;2024-01-25T10:46:48;20.52;;;9.45;;
78324;SDS011;67584;51.400;6.692;2024-01-25T10:49:14;26.55;;;11.07;;
78324;SDS011;67584;51.400;6.692;2024-01-25T10:51:41;26.98;;;10.98;;
78324;SDS011;67584;51.400;6.692;2024-01-25T10:54:10;21.92;;;8.98;;
78324;SDS011;67584;51.400;6.692;2024-01-25T10:56:37;18.77;;;9.27;;
78324;SDS011;67584;51.400;6.692;2024-01-25T10:59:06;26.27;;;9.73;;
78324;SDS011;67584;51.400;6.692;2024-01-25T11:01:33;29.45;;;10.85;;
78324;SDS011;67584;51.400;6.692;2024-01-25T11:03:59;18.52;;;10.10;;
78324;SDS011;67584;51.400;6.692;2024-01-25T11:06:26;28.30;;;9.65;;
78324;SDS011;67584;51.400;6.692;2024-01-25T11:09:03;16.85;;;6.65;;
78324;SDS011;67584;51.400;6.692;2024-01-25T11:11:31;25.55;;;11.02;;
78324;SDS011;67584;51.400;6.692;2024-01-25T11:13:58;27.10;;;10.00;;
78324;SDS011;67584;51.400;6.692;2024-01-25T11:16:31;26.63;;;10.77;;
78324;SDS011;67584;51.400;6.692;2024-01-25T11:18:59;25.55;;;10.95;;
78324;SDS011;67584;51.400;6.692;2024-01-25T11:21:39;22.70;;;8.30;;
78324;SDS011;67584;51.400;6.692;2024-01-25T11:24:04;27.70;;;9.82;;
78324;SDS011;67584;51.400;6.692;2024-01-25T11:26:34;34.47;;;11.27;;
78324;SDS011;67584;51.400;6.692;2024-01-25T11:28:59;26.73;;;10.57;;
78324;SDS011;67584;51.400;6.692;2024-01-25T11:31:29;27.45;;;11.35;;
78324;SDS011;67584;51.400;6.692;2024-01-25T11:33:58;25.77;;;11.20;;
78324;SDS011;67584;51.400;6.692;2024-01-25T11:36:27;24.83;;;9.15;;
78324;SDS011;67584;51.400;6.692;2024-01-25T11:38:53;25.48;;;10.90;;
78324;SDS011;67584;51.400;6.692;2024-01-25T11:41:19;24.73;;;10.30;;
78324;SDS011;67584;51.400;6.692;2024-01-25T11:43:48;28.88;;;10.00;;
78324;SDS011;67584;51.400;6.692;2024-01-25T11:46:14;20.00;;;10.07;;
78324;SDS011;67584;51.400;6.692;2024-01-25T11:48:40;29.23;;;11.27;;
78324;SDS011;67584;51.400;6.692;2024-01-25T11:51:06;30.92;;;9.55;;
78324;SDS011;67584;51.400;6.692;2024-01-25T11:53:35;23.73;;;8.60;;
78324;SDS011;67584;51.400;6.692;2024-01-25T11:56:00;22.02;;;9.20;;
78324;SDS011;67584;51.400;6.692;2024-01-25T11:58:26;23.02;;;10.25;;
78324;SDS011;67584;51.400;6.692;2024-01-25T12:00:52;19.13;;;8.80;;
78324;SDS011;67584;51.400;6.692;2024-01-25T12:03:19;26.60;;;9.60;;
78324;SDS011;67584;51.400;6.692;2024-01-25T12:05:46;24.58;;;9.50;;
78324;SDS011;67584;51.400;6.692;2024-01-25T12:08:12;29.20;;;10.30;;
78324;SDS011;67584;51.400;6.692;2024-01-25T12:10:38;29.92;;;9.95;;
78324;SDS011;67584;51.400;6.692;2024-01-25T12:13:08;30.10;;;10.27;;
78324;SDS011;67584;51.400;6.692;2024-01-25T12:15:34;19.80;;;8.50;;
78324;SDS011;67584;51.400;6.692;2024-01-25T12:18:00;21.27;;;10.13;;
78324;SDS011;67584;51.400;6.692;2024-01-25T12:20:27;34.35;;;11.90;;
78324;SDS011;67584;51.400;6.692;2024-01-25T12:22:53;24.98;;;9.80;;
78324;SDS011;67584;51.400;6.692;2024-01-25T12:25:19;17.13;;;9.80;;
78324;SDS011;67584;51.400;6.692;2024-01-25T12:27:46;25.42;;;10.45;;
78324;SDS011;67584;51.400;6.692;2024-01-25T12:30:14;20.80;;;9.70;;
78324;SDS011;67584;51.400;6.692;2024-01-25T12:32:40;28.90;;;10.93;;
78324;SDS011;67584;51.400;6.692;2024-01-25T12:35:06;28.67;;;9.52;;
78324;SDS011;67584;51.400;6.692;2024-01-25T12:37:33;31.60;;;11.07;;
78324;SDS011;67584;51.400;6.692;2024-01-25T12:39:59;30.80;;;12.02;;
78324;SDS011;67584;51.400;6.692;2024-01-25T12:42:24;29.30;;;10.50;;
78324;SDS011;67584;51.400;6.692;2024-01-25T12:44:52;30.25;;;11.07;;
78324;SDS011;67584;51.400;6.692;2024-01-25T12:47:19;30.15;;;13.68;;
78324;SDS011;67584;51.400;6.692;2024-01-25T12:49:45;22.40;;;13.15;;
78324;SDS011;67584;51.400;6.692;2024-01-25T12:52:11;25.48;;;10.27;;
78324;SDS011;67584;51.400;6.692;2024-01-25T12:54:38;26.95;;;11.63;;
78324;SDS011;67584;51.400;6.692;2024-01-25T12:57:04;36.65;;;13.95;;
78324;SDS011;67584;51.400;6.692;2024-01-25T12:59:31;22.08;;;9.32;;
78324;SDS011;67584;51.400;6.692;2024-01-25T13:02:00;30.13;;;10.93;;
78324;SDS011;67584;51.400;6.692;2024-01-25T13:04:26;30.98;;;11.68;;
78324;SDS011;67584;51.400;6.692;2024-01-25T13:06:52;22.50;;;10.23;;
78324;SDS011;67584;51.400;6.692;2024-01-25T13:09:20;33.20;;;11.77;;
78324;SDS011;67584;51.400;6.692;2024-01-25T13:11:46;30.33;;;11.10;;
78324;SDS011;67584;51.400;6.692;2024-01-25T13:14:12;21.50;;;10.63;;
78324;SDS011;67584;51.400;6.692;2024-01-25T13:16:38;25.98;;;12.20;;
78324;SDS011;67584;51.400;6.692;2024-01-25T13:19:03;30.42;;;11.95;;
78324;SDS011;67584;51.400;6.692;2024-01-25T13:21:29;20.67;;;9.23;;
78324;SDS011;67584;51.400;6.692;2024-01-25T13:23:55;24.15;;;10.18;;
78324;SDS011;67584;51.400;6.692;2024-01-25T13:26:21;30.77;;;11.02;;
78324;SDS011;67584;51.400;6.692;2024-01-25T13:28:46;35.25;;;13.15;;
78324;SDS011;67584;51.400;6.692;2024-01-25T13:31:12;29.00;;;11.07;;
78324;SDS011;67584;51.400;6.692;2024-01-25T13:33:38;23.10;;;9.32;;
78324;SDS011;67584;51.400;6.692;2024-01-25T13:36:03;26.15;;;10.80;;
78324;SDS011;67584;51.400;6.692;2024-01-25T13:38:36;28.52;;;10.38;;
78324;SDS011;67584;51.400;6.692;2024-01-25T13:41:02;19.48;;;8.90;;
78324;SDS011;67584;51.400;6.692;2024-01-25T13:43:28;34.78;;;12.15;;
78324;SDS011;67584;51.400;6.692;2024-01-25T13:45:54;30.75;;;10.98;;
78324;SDS011;67584;51.400;6.692;2024-01-25T13:48:20;27.17;;;11.52;;
78324;SDS011;67584;51.400;6.692;2024-01-25T13:50:46;25.42;;;10.15;;
78324;SDS011;67584;51.400;6.692;2024-01-25T13:53:11;32.80;;;11.25;;
78324;SDS011;67584;51.400;6.692;2024-01-25T13:55:37;29.10;;;10.23;;
78324;SDS011;67584;51.400;6.692;2024-01-25T13:58:03;27.60;;;10.93;;
78324;SDS011;67584;51.400;6.692;2024-01-25T14:00:28;34.85;;;11.93;;
78324;SDS011;67584;51.400;6.692;2024-01-25T14:02:54;31.15;;;10.32;;
78324;SDS011;67584;51.400;6.692;2024-01-25T14:05:20;31.88;;;10.70;;
78324;SDS011;67584;51.400;6.692;2024-01-25T14:07:46;32.30;;;11.48;;
78324;SDS011;67584;51.400;6.692;2024-01-25T14:10:11;26.13;;;9.68;;
78324;SDS011;67584;51.400;6.692;2024-01-25T14:12:37;28.58;;;10.70;;
78324;SDS011;67584;51.400;6.692;2024-01-25T14:15:03;34.53;;;11.25;;
78324;SDS011;67584;51.400;6.692;2024-01-25T14:17:29;25.40;;;9.57;;
78324;SDS011;67584;51.400;6.692;2024-01-25T14:19:54;27.77;;;10.82;;
78324;SDS011;67584;51.400;6.692;2024-01-25T14:22:20;30.60;;;11.27;;
78324;SDS011;67584;51.400;6.692;2024-01-25T14:24:46;29.60;;;10.90;;
78324;SDS011;67584;51.400;6.692;2024-01-25T14:27:12;28.23;;;11.75;;
78324;SDS011;67584;51.400;6.692;2024-01-25T14:29:38;28.23;;;10.77;;
78324;SDS011;67584;51.400;6.692;2024-01-25T14:32:04;33.65;;;11.18;;